Time;durP1;ratioP1;P1;durP2;ratioP2;P2;SDS_P1;SDS_P2;PMS_P1;PMS_P2;Temp;Humidity;BMP_temperature;BMP_pressure;BME280_temperature;BME280_humidity;BME280_pressure;Samples;Min_cycle;Max_cycle;Signal;HPM_P1;HPM_P2
2024/03/08 00:00:12;;;;;;;33.00;28.00;;;;;;;3.73;65.81;98414.78;4940071;29;20055;-75
2024/03/08 00:02:42;;;;;;;31.65;26.83;;;;;;;3.66;65.36;98403.28;4942490;28;20121;-75
2024/03/08 00:05:08;;;;;;;32.80;27.30;;;;;;;3.69;66.39;98421.50;4955348;28;20066;-75
2024/03/08 00:07:41;;;;;;;34.50;29.58;;;;;;;3.74;65.87;98415.59;4957005;28;20054;-75
2024/03/08 00:10:11;;;;;;;34.40;28.25;;;;;;;3.62;66.15;98415.31;4967973;28;20037;-77
2024/03/08 00:12:41;;;;;;;35.35;29.10;;;;;;;3.54;66.56;98406.66;4951905;28;20054;-75
2024/03/08 00:15:09;;;;;;;33.95;27.27;;;;;;;3.57;66.27;98412.41;4957028;28;20422;-75
2024/03/08 00:17:34;;;;;;;33.63;28.67;;;;;;;3.61;66.48;98403.03;4939646;29;20039;-75
2024/03/08 00:20:00;;;;;;;34.70;29.90;;;;;;;3.49;66.50;98400.09;4964000;28;20039;-75
2024/03/08 00:22:25;;;;;;;33.30;28.40;;;;;;;3.41;66.62;98394.91;4925258;29;20026;-75
2024/03/08 00:24:51;;;;;;;35.05;29.13;;;;;;;3.45;66.86;98403.34;4955988;28;20054;-75
2024/03/08 00:27:16;;;;;;;32.70;28.50;;;;;;;3.34;66.89;98377.22;4955885;29;20023;-75
2024/03/08 00:29:42;;;;;;;33.72;27.75;;;;;;;3.41;66.96;98407.38;4947899;29;20086;-75
2024/03/08 00:32:10;;;;;;;35.67;29.42;;;;;;;3.34;67.38;98403.84;4953451;29;20454;-75
2024/03/08 00:34:39;;;;;;;35.45;29.30;;;;;;;3.25;67.07;98391.69;4955203;28;20098;-75
2024/03/08 00:37:04;;;;;;;34.00;28.58;;;;;;;3.22;67.84;98382.25;4955692;29;20110;-75
2024/03/08 00:39:30;;;;;;;33.05;29.15;;;;;;;3.18;68.06;98401.47;4939480;29;20031;-75
2024/03/08 00:41:55;;;;;;;34.60;28.83;;;;;;;3.17;67.48;98405.16;4940949;28;20026;-75
2024/03/08 00:44:21;;;;;;;35.15;29.80;;;;;;;2.96;67.58;98371.44;4975598;28;20043;-76
2024/03/08 00:46:46;;;;;;;37.28;30.38;;;;;;;3.08;67.76;98387.69;4961061;28;20031;-74
2024/03/08 00:49:12;;;;;;;34.95;29.48;;;;;;;2.90;68.25;98376.66;4956580;28;20043;-75
2024/03/08 00:51:38;;;;;;;34.95;29.92;;;;;;;3.05;67.90;98390.72;4958472;28;20035;-75
2024/03/08 00:54:03;;;;;;;34.47;30.23;;;;;;;2.97;67.24;98372.22;4954805;28;20064;-75
2024/03/08 00:56:29;;;;;;;34.67;29.58;;;;;;;2.89;68.55;98364.41;4955894;28;20033;-75
2024/03/08 00:58:54;;;;;;;35.55;29.35;;;;;;;2.96;68.53;98359.97;4955042;29;20098;-76
2024/03/08 01:01:20;;;;;;;37.35;29.75;;;;;;;2.98;68.64;98373.88;4954444;29;20022;-74
2024/03/08 01:03:46;;;;;;;35.63;29.58;;;;;;;2.97;68.11;98378.38;4954544;28;20110;-75
2024/03/08 01:06:11;;;;;;;35.15;28.77;;;;;;;2.91;68.89;98349.06;4955964;28;20023;-75
2024/03/08 01:08:38;;;;;;;33.15;28.85;;;;;;;3.00;68.56;98355.91;4938716;29;20479;-74
2024/03/08 01:11:06;;;;;;;35.72;28.52;;;;;;;2.95;68.97;98339.69;4954511;29;20509;-76
2024/03/08 01:13:32;;;;;;;36.40;30.17;;;;;;;3.05;69.30;98353.50;4928525;28;20034;-74
2024/03/08 01:15:57;;;;;;;35.00;28.58;;;;;;;3.05;68.76;98334.88;4955388;28;20070;-75
2024/03/08 01:18:23;;;;;;;34.28;28.98;;;;;;;3.24;68.72;98358.97;4956145;28;20129;-75
2024/03/08 01:20:48;;;;;;;34.40;29.23;;;;;;;3.12;69.13;98338.41;4939937;28;20376;-75
2024/03/08 01:23:14;;;;;;;36.58;29.20;;;;;;;3.31;68.49;98353.69;4959604;28;20198;-75
2024/03/08 01:25:41;;;;;;;35.95;30.38;;;;;;;3.26;68.47;98356.09;4971289;28;20023;-75
2024/03/08 01:28:07;;;;;;;35.80;30.52;;;;;;;2.95;68.38;98334.38;4959215;28;20038;-74
2024/03/08 01:30:34;;;;;;;36.78;30.25;;;;;;;3.03;69.31;98339.56;4974313;28;20502;-75
2024/03/08 01:32:59;;;;;;;33.75;28.90;;;;;;;2.94;69.18;98308.81;4954090;28;20402;-74
2024/03/08 01:35:26;;;;;;;36.80;29.10;;;;;;;3.12;69.07;98333.91;4971082;28;20106;-74
2024/03/08 01:37:51;;;;;;;34.60;28.05;;;;;;;3.16;69.26;98318.34;4958861;28;20047;-74
2024/03/08 01:40:17;;;;;;;33.45;28.98;;;;;;;3.23;68.83;98316.56;4955989;28;20034;-76
2024/03/08 01:42:42;;;;;;;34.25;28.75;;;;;;;3.40;68.25;98309.94;4954394;29;20478;-76
2024/03/08 01:45:08;;;;;;;33.22;28.20;;;;;;;3.46;68.50;98309.13;4954904;29;20075;-76
2024/03/08 01:47:34;;;;;;;34.78;29.15;;;;;;;3.39;67.98;98292.28;4955119;28;20513;-76
2024/03/08 01:50:03;;;;;;;37.03;30.27;;;;;;;3.54;67.99;98308.97;4957761;28;20050;-76
2024/03/08 01:52:32;;;;;;;34.60;28.55;;;;;;;3.50;67.80;98284.56;4968858;28;20044;-76
2024/03/08 01:55:03;;;;;;;31.00;27.55;;;;;;;3.64;67.95;98293.44;4954363;29;20091;-76
2024/03/08 01:57:31;;;;;;;33.05;28.67;;;;;;;3.53;67.71;98272.72;4955102;29;20043;-76
2024/03/08 01:59:57;;;;;;;32.38;28.52;;;;;;;3.62;67.77;98281.38;4974127;28;20027;-76
2024/03/08 02:02:22;;;;;;;29.58;26.38;;;;;;;3.67;67.10;98285.06;4954114;29;20035;-76
2024/03/08 02:04:48;;;;;;;34.03;28.27;;;;;;;3.72;67.22;98277.31;4954470;29;20023;-76
2024/03/08 02:07:14;;;;;;;33.35;28.50;;;;;;;3.70;66.58;98271.38;4938341;29;20046;-76
2024/03/08 02:09:39;;;;;;;31.88;28.38;;;;;;;3.60;66.16;98240.78;4946284;28;20032;-76
2024/03/08 02:12:05;;;;;;;32.65;27.45;;;;;;;3.70;66.58;98252.72;4954278;29;20035;-75
2024/03/08 02:14:35;;;;;;;34.90;28.48;;;;;;;3.74;66.65;98277.94;4923545;29;20065;-76
2024/03/08 02:17:01;;;;;;;32.08;28.20;;;;;;;3.73;66.85;98263.00;4955446;29;20079;-76
2024/03/08 02:19:26;;;;;;;32.50;27.95;;;;;;;3.57;66.97;98231.34;4952752;28;20035;-75
2024/03/08 02:21:52;;;;;;;33.35;28.70;;;;;;;3.78;66.78;98265.84;4953910;28;20031;-76
2024/03/08 02:24:17;;;;;;;34.60;29.20;;;;;;;3.78;66.59;98260.53;4954662;28;20071;-76
2024/03/08 02:26:42;;;;;;;32.53;28.27;;;;;;;3.76;67.22;98259.91;4954283;29;20055;-76
2024/03/08 02:29:09;;;;;;;34.60;28.63;;;;;;;3.60;67.07;98259.44;4939729;28;20113;-76
2024/03/08 02:31:34;;;;;;;32.65;28.15;;;;;;;3.70;66.98;98255.38;4956070;28;20050;-76
2024/03/08 02:34:00;;;;;;;34.35;27.95;;;;;;;3.68;67.03;98253.94;4956736;28;20035;-77
2024/03/08 02:36:25;;;;;;;32.45;27.70;;;;;;;3.71;66.85;98254.34;4938218;29;20125;-76
2024/03/08 02:38:50;;;;;;;32.85;28.20;;;;;;;3.70;66.89;98247.41;4954679;29;20064;-77
2024/03/08 02:41:16;;;;;;;33.35;29.27;;;;;;;3.74;66.55;98259.28;4954150;29;20091;-76
2024/03/08 02:43:41;;;;;;;32.92;29.35;;;;;;;3.72;66.61;98244.53;4942078;28;20024;-76
2024/03/08 02:46:07;;;;;;;33.58;28.25;;;;;;;3.67;66.61;98250.44;4921986;29;20372;-74
2024/03/08 02:48:32;;;;;;;33.42;29.17;;;;;;;3.72;66.82;98256.00;4948137;29;20032;-75
2024/03/08 02:50:57;;;;;;;36.50;30.95;;;;;;;3.61;66.69;98235.28;4953861;29;20046;-75
2024/03/08 02:53:24;;;;;;;34.53;29.08;;;;;;;3.70;66.89;98258.06;4954118;29;20034;-76
2024/03/08 02:55:49;;;;;;;36.40;30.33;;;;;;;3.68;67.37;98249.44;4953726;28;20043;-75
2024/03/08 02:58:15;;;;;;;37.67;31.85;;;;;;;3.57;67.23;98242.00;4953681;29;20135;-76
2024/03/08 03:00:40;;;;;;;34.42;30.33;;;;;;;3.55;67.37;98236.06;4954204;29;20041;-76
2024/03/08 03:03:06;;;;;;;36.38;30.83;;;;;;;3.53;67.29;98238.09;4972024;28;20062;-74
2024/03/08 03:05:33;;;;;;;35.38;29.60;;;;;;;3.59;67.14;98232.00;4954936;28;20046;-76
2024/03/08 03:07:59;;;;;;;38.10;32.03;;;;;;;3.65;66.76;98239.19;4956916;28;20034;-76
2024/03/08 03:10:24;;;;;;;36.53;31.20;;;;;;;3.43;67.03;98211.06;4941262;29;20043;-76
2024/03/08 03:12:50;;;;;;;34.53;29.83;;;;;;;3.49;66.90;98228.88;4954213;28;20031;-76
2024/03/08 03:15:19;;;;;;;34.80;29.63;;;;;;;3.50;67.11;98230.53;4953872;29;20037;-76
2024/03/08 03:17:48;;;;;;;35.70;29.88;;;;;;;3.63;67.27;98235.91;4950026;29;20035;-76
2024/03/08 03:20:14;;;;;;;34.53;29.15;;;;;;;3.58;67.56;98238.34;4953881;29;20035;-75
2024/03/08 03:22:47;;;;;;;38.05;30.17;;;;;;;3.47;67.25;98222.94;4957855;28;20027;-75
2024/03/08 03:25:12;;;;;;;34.80;30.65;;;;;;;3.54;67.50;98220.28;4945909;28;20094;-76
2024/03/08 03:27:38;;;;;;;32.25;28.30;;;;;;;3.48;67.72;98216.56;4959943;28;20533;-75
2024/03/08 03:30:20;;;;;;;33.38;28.83;;;;;;;3.63;67.43;98227.91;4969864;28;20035;-75
2024/03/08 03:32:47;;;;;;;33.20;28.73;;;;;;;3.55;67.31;98217.44;4953092;29;20522;-75
2024/03/08 03:35:15;;;;;;;34.50;30.65;;;;;;;3.60;67.33;98227.47;4941685;28;20026;-76
2024/03/08 03:37:42;;;;;;;36.03;29.30;;;;;;;3.47;68.02;98199.81;4937262;29;20035;-75
2024/03/08 03:40:08;;;;;;;34.58;29.70;;;;;;;3.52;67.54;98215.19;4953998;28;20034;-76
2024/03/08 03:42:34;;;;;;;35.88;30.15;;;;;;;3.58;67.63;98222.38;4956259;29;20039;-76
2024/03/08 03:44:59;;;;;;;36.33;30.60;;;;;;;3.51;67.65;98224.19;4956136;29;20030;-74
2024/03/08 03:47:26;;;;;;;40.85;30.75;;;;;;;3.44;67.27;98199.38;4956395;29;20062;-75
2024/03/08 03:49:53;;;;;;;36.85;30.13;;;;;;;2.95;67.28;98121.59;4958163;28;20113;-76
2024/03/08 03:52:18;;;;;;;33.88;28.90;;;;;;;3.34;67.58;98193.59;4959559;28;20102;-76
2024/03/08 03:54:44;;;;;;;35.47;29.90;;;;;;;3.46;67.87;98224.78;4958335;28;20062;-76
2024/03/08 03:57:09;;;;;;;37.15;30.88;;;;;;;3.42;67.61;98212.88;4977701;28;20447;-76
2024/03/08 03:59:35;;;;;;;33.83;29.25;;;;;;;3.20;67.91;98183.91;4955836;29;20591;-76
2024/03/08 04:02:00;;;;;;;36.13;30.10;;;;;;;3.43;67.00;98219.03;4922917;29;20066;-76
2024/03/08 04:04:25;;;;;;;34.92;30.58;;;;;;;3.26;67.52;98201.75;4956121;28;20027;-76
2024/03/08 04:06:51;;;;;;;34.55;30.80;;;;;;;3.41;68.13;98224.53;4922993;29;20130;-74
2024/03/08 04:09:19;;;;;;;38.85;31.60;;;;;;;3.35;68.49;98222.69;4949577;29;20038;-75
2024/03/08 04:11:44;;;;;;;35.95;30.55;;;;;;;3.26;67.78;98207.09;4954438;29;20042;-75
2024/03/08 04:14:10;;;;;;;36.78;31.13;;;;;;;3.23;68.03;98202.16;4970947;28;20019;-75
2024/03/08 04:16:36;;;;;;;37.05;31.45;;;;;;;3.24;68.42;98214.44;4954665;29;20042;-75
2024/03/08 04:19:04;;;;;;;39.00;32.42;;;;;;;3.25;68.89;98221.38;4954792;29;20023;-76
2024/03/08 04:21:30;;;;;;;37.03;30.70;;;;;;;3.25;68.65;98211.56;4938699;29;20043;-75
2024/03/08 04:23:56;;;;;;;37.40;31.92;;;;;;;3.16;68.87;98201.28;4954378;28;20030;-77
2024/03/08 04:26:21;;;;;;;38.70;31.23;;;;;;;3.16;69.04;98207.44;4938386;29;20483;-76
2024/03/08 04:28:47;;;;;;;39.08;32.50;;;;;;;3.11;68.65;98198.41;4970496;28;20163;-75
2024/03/08 04:31:12;;;;;;;36.40;30.27;;;;;;;3.08;68.88;98212.13;4954342;28;20031;-76
2024/03/08 04:33:38;;;;;;;40.13;32.55;;;;;;;3.20;69.13;98214.00;4938599;29;20471;-75
2024/03/08 04:36:04;;;;;;;38.05;31.73;;;;;;;3.18;69.35;98220.53;4971692;23;21023;-73
2024/03/08 04:38:30;;;;;;;39.63;31.63;;;;;;;3.17;68.77;98213.59;4960310;28;20034;-73
2024/03/08 04:40:56;;;;;;;39.90;33.30;;;;;;;3.10;68.71;98204.75;4955905;28;20380;-73
2024/03/08 04:43:23;;;;;;;36.72;32.05;;;;;;;3.13;68.59;98218.47;4963526;28;20062;-73
2024/03/08 04:45:48;;;;;;;40.00;31.92;;;;;;;3.18;68.72;98215.22;4970112;28;20030;-76
2024/03/08 04:48:14;;;;;;;40.50;32.65;;;;;;;3.20;68.56;98218.50;4985730;28;20077;-74
2024/03/08 04:50:39;;;;;;;38.72;32.55;;;;;;;3.15;68.62;98218.28;4966299;28;20054;-73
2024/03/08 04:53:07;;;;;;;38.22;32.47;;;;;;;3.07;68.79;98197.97;4955843;28;20027;-74
2024/03/08 04:55:34;;;;;;;38.60;32.08;;;;;;;3.05;69.62;98207.19;4973336;28;20034;-73
2024/03/08 04:57:59;;;;;;;38.45;32.63;;;;;;;2.92;69.23;98183.97;4956096;28;20082;-75
2024/03/08 05:00:25;;;;;;;36.95;31.80;;;;;;;3.05;69.56;98212.50;4958655;28;20042;-74
2024/03/08 05:02:53;;;;;;;41.17;33.25;;;;;;;3.07;69.70;98210.47;4948498;28;20479;-74
2024/03/08 05:05:18;;;;;;;38.72;33.33;;;;;;;3.11;69.52;98219.69;4955004;28;20455;-75
2024/03/08 05:07:45;;;;;;;41.45;34.80;;;;;;;2.98;69.83;98198.34;4988524;28;20038;-74
2024/03/08 05:10:11;;;;;;;42.60;35.33;;;;;;;3.11;69.82;98209.03;4937905;29;20043;-74
2024/03/08 05:12:38;;;;;;;39.50;33.65;;;;;;;2.94;70.04;98197.09;4990291;28;20037;-75
2024/03/08 05:15:05;;;;;;;44.08;34.58;;;;;;;2.97;69.74;98202.00;4955827;28;20034;-74
2024/03/08 05:17:30;;;;;;;42.53;34.33;;;;;;;2.92;70.62;98204.44;4959366;28;20039;-75
2024/03/08 05:19:55;;;;;;;42.05;34.47;;;;;;;2.89;70.30;98194.19;4953643;29;20109;-75
2024/03/08 05:22:21;;;;;;;45.25;36.13;;;;;;;2.93;69.78;98200.75;4988226;28;20026;-75
2024/03/08 05:24:47;;;;;;;43.67;35.85;;;;;;;2.93;70.03;98206.91;4951226;28;20045;-75
2024/03/08 05:27:13;;;;;;;43.67;35.92;;;;;;;3.01;70.74;98214.72;4954296;28;20415;-74
2024/03/08 05:29:38;;;;;;;44.00;36.55;;;;;;;2.87;70.14;98191.72;4958260;28;20050;-73
2024/03/08 05:32:04;;;;;;;46.30;38.13;;;;;;;2.93;70.65;98203.41;4983824;28;20029;-74
2024/03/08 05:34:30;;;;;;;47.40;37.92;;;;;;;2.96;70.52;98208.34;4963967;28;20046;-76
2024/03/08 05:36:55;;;;;;;48.22;36.92;;;;;;;2.88;70.93;98188.06;4954700;28;20026;-74
2024/03/08 05:39:21;;;;;;;44.72;34.85;;;;;;;2.95;70.68;98201.38;4962920;28;20085;-75
2024/03/08 05:41:46;;;;;;;44.10;36.40;;;;;;;2.86;70.46;98189.25;4953625;28;20030;-74
2024/03/08 05:44:12;;;;;;;48.20;36.72;;;;;;;2.90;70.64;98196.66;4979812;28;20039;-75
2024/03/08 05:46:38;;;;;;;46.88;35.10;;;;;;;2.85;70.52;98192.97;4947502;28;20022;-74
2024/03/08 05:49:05;;;;;;;46.55;36.10;;;;;;;2.93;70.39;98195.44;4985610;28;20045;-75
2024/03/08 05:51:34;;;;;;;45.65;36.92;;;;;;;2.95;70.47;98206.69;4953764;28;20448;-74
2024/03/08 05:54:03;;;;;;;46.05;37.35;;;;;;;2.94;70.85;98197.09;4978731;28;20502;-74
2024/03/08 05:56:29;;;;;;;49.08;38.17;;;;;;;2.84;70.63;98188.63;4962840;28;20029;-75
2024/03/08 05:58:54;;;;;;;46.75;36.25;;;;;;;2.84;70.68;98185.97;4987054;28;20064;-74
2024/03/08 06:01:20;;;;;;;48.30;41.15;;;;;;;2.93;71.29;98198.09;4963522;28;20041;-75
2024/03/08 06:03:46;;;;;;;46.45;39.97;;;;;;;2.84;71.21;98184.16;4963954;28;20525;-76
2024/03/08 06:06:15;;;;;;;47.20;36.60;;;;;;;2.81;71.16;98181.88;4954232;28;20526;-76
2024/03/08 06:08:42;;;;;;;45.92;35.53;;;;;;;2.88;70.88;98181.91;4947598;28;20045;-77
2024/03/08 06:11:08;;;;;;;47.58;35.80;;;;;;;2.77;70.96;98162.84;4957243;28;20029;-76
2024/03/08 06:13:33;;;;;;;45.65;36.47;;;;;;;2.90;70.97;98179.88;4967146;28;20038;-77
2024/03/08 06:16:00;;;;;;;44.25;36.13;;;;;;;2.84;71.01;98172.69;4962386;28;20074;-75
2024/03/08 06:18:26;;;;;;;44.30;36.67;;;;;;;2.83;71.61;98168.38;4951465;28;20510;-76
2024/03/08 06:20:51;;;;;;;48.25;36.90;;;;;;;2.86;71.11;98171.47;4945961;28;20022;-76
2024/03/08 06:23:19;;;;;;;45.00;36.30;;;;;;;2.84;70.94;98175.34;4947474;28;20042;-76
2024/03/08 06:25:45;;;;;;;46.72;36.65;;;;;;;2.86;71.06;98170.66;4944308;28;20559;-76
2024/03/08 06:28:11;;;;;;;43.60;35.05;;;;;;;2.97;71.60;98180.72;4983985;28;20042;-75
2024/03/08 06:30:36;;;;;;;47.15;36.25;;;;;;;2.90;71.44;98177.22;4950730;28;20031;-75
2024/03/08 06:33:02;;;;;;;46.55;35.50;;;;;;;2.66;71.03;98142.09;4951644;28;20752;-75
2024/03/08 06:35:27;;;;;;;49.05;38.13;;;;;;;2.88;71.15;98165.94;4953425;28;20573;-74
2024/03/08 06:37:53;;;;;;;46.05;35.10;;;;;;;2.86;71.60;98162.66;4953630;28;20039;-75
2024/03/08 06:40:18;;;;;;;52.00;38.50;;;;;;;2.80;71.39;98149.13;4971945;28;20485;-75
2024/03/08 06:42:44;;;;;;;49.17;36.65;;;;;;;2.78;71.67;98140.53;4954883;28;20035;-74
2024/03/08 06:45:10;;;;;;;51.00;38.78;;;;;;;2.88;71.30;98156.13;4962003;28;20019;-75
2024/03/08 06:47:36;;;;;;;45.75;35.95;;;;;;;2.89;71.77;98175.59;4953781;28;20037;-76
2024/03/08 06:50:03;;;;;;;51.05;38.08;;;;;;;2.83;71.39;98176.34;4961204;28;20034;-77
2024/03/08 06:52:29;;;;;;;50.85;38.13;;;;;;;2.82;71.50;98159.59;4965111;28;20415;-75
2024/03/08 06:54:54;;;;;;;50.55;38.42;;;;;;;2.65;71.37;98151.13;4979332;28;20545;-73
2024/03/08 06:57:21;;;;;;;48.03;38.05;;;;;;;2.78;71.87;98156.50;4977399;28;20043;-74
2024/03/08 06:59:49;;;;;;;50.17;37.88;;;;;;;2.75;72.42;98164.06;4964420;28;20144;-73
2024/03/08 07:02:14;;;;;;;49.28;38.30;;;;;;;2.63;73.11;98142.50;4970615;28;20046;-73
2024/03/08 07:04:39;;;;;;;51.58;38.33;;;;;;;2.72;73.09;98159.94;4966789;28;20035;-75
2024/03/08 07:07:09;;;;;;;53.30;39.28;;;;;;;2.77;73.13;98148.72;4955073;28;20027;-75
2024/03/08 07:09:37;;;;;;;49.53;37.72;;;;;;;2.70;74.27;98154.00;4973652;28;20039;-75
2024/03/08 07:12:03;;;;;;;47.17;37.58;;;;;;;2.92;73.22;98156.59;4964771;28;20026;-76
2024/03/08 07:14:29;;;;;;;48.45;37.53;;;;;;;3.10;73.37;98159.53;4957450;28;20081;-75
2024/03/08 07:16:54;;;;;;;46.58;36.15;;;;;;;3.10;72.85;98143.56;4951090;28;20117;-75
2024/03/08 07:19:21;;;;;;;48.55;37.05;;;;;;;3.28;72.91;98151.81;4962334;28;20042;-75
2024/03/08 07:21:47;;;;;;;43.35;34.38;;;;;;;3.17;71.99;98109.81;4967721;28;20034;-75
2024/03/08 07:24:27;;;;;;;44.92;36.33;;;;;;;3.39;71.73;98128.09;4960446;28;20410;-75
2024/03/08 07:26:54;;;;;;;47.67;35.28;;;;;;;3.61;71.23;98131.44;4967910;28;20034;-75
2024/03/08 07:29:19;;;;;;;43.88;34.10;;;;;;;3.75;70.75;98121.63;4982837;28;20042;-75
2024/03/08 07:31:50;;;;;;;45.65;35.30;;;;;;;3.70;71.07;98102.78;4974565;28;20038;-75
2024/03/08 07:34:17;;;;;;;44.15;33.22;;;;;;;3.78;70.22;98095.41;4974501;28;20042;-75
2024/03/08 07:36:42;;;;;;;43.65;33.78;;;;;;;4.02;70.06;98121.44;4961404;28;20441;-75
2024/03/08 07:39:14;;;;;;;40.83;33.15;;;;;;;3.91;69.60;98089.28;4947565;28;20051;-76
2024/03/08 07:41:40;;;;;;;42.08;34.53;;;;;;;4.06;69.04;98101.34;4967213;28;20104;-75
2024/03/08 07:44:06;;;;;;;44.63;34.60;;;;;;;4.09;69.39;98098.28;4956301;28;20470;-75
2024/03/08 07:46:33;;;;;;;43.15;33.22;;;;;;;4.24;68.77;98106.06;4948635;28;20028;-75
2024/03/08 07:48:59;;;;;;;39.83;32.15;;;;;;;4.39;68.69;98087.19;4970527;28;20096;-75
2024/03/08 07:51:25;;;;;;;41.47;33.47;;;;;;;4.14;68.93;98066.50;4981672;28;20034;-75
2024/03/08 07:53:50;;;;;;;41.22;33.15;;;;;;;4.48;68.34;98108.06;4966981;28;20022;-75
2024/03/08 07:56:18;;;;;;;40.10;32.67;;;;;;;4.49;67.47;98096.41;4941065;28;20066;-75
2024/03/08 07:58:44;;;;;;;39.42;31.77;;;;;;;4.52;67.45;98093.31;4956872;28;20037;-75
2024/03/08 08:01:20;;;;;;;38.70;31.10;;;;;;;4.60;67.63;98094.91;4971495;28;20494;-75
2024/03/08 08:03:46;;;;;;;40.88;32.90;;;;;;;4.80;66.67;98095.69;4971616;28;20478;-75
2024/03/08 08:06:15;;;;;;;40.75;32.75;;;;;;;4.63;66.81;98086.50;4975232;28;20073;-75
2024/03/08 08:08:44;;;;;;;40.83;32.83;;;;;;;4.75;67.35;98101.66;4978194;28;20042;-75
2024/03/08 08:11:15;;;;;;;40.83;33.00;;;;;;;4.84;66.66;98097.75;4951476;28;20505;-75
2024/03/08 08:13:43;;;;;;;38.05;31.23;;;;;;;4.87;66.76;98092.00;4966597;28;20133;-75
2024/03/08 08:16:08;;;;;;;44.72;32.22;;;;;;;4.86;66.18;98081.50;4966105;28;20027;-75
2024/03/08 08:18:36;;;;;;;38.83;31.30;;;;;;;5.05;66.59;98104.63;4959947;28;20502;-75
2024/03/08 08:21:02;;;;;;;40.30;32.85;;;;;;;4.94;66.07;98070.63;4975777;28;20094;-75
2024/03/08 08:23:27;;;;;;;42.45;31.90;;;;;;;5.00;65.62;98075.09;4940548;28;20082;-75
2024/03/08 08:25:52;;;;;;;38.80;31.17;;;;;;;5.17;66.21;98088.78;4969280;28;20022;-75
2024/03/08 08:28:18;;;;;;;41.08;31.65;;;;;;;5.12;65.49;98068.06;4988873;28;20069;-75
2024/03/08 08:30:47;;;;;;;37.72;31.63;;;;;;;5.23;65.68;98070.06;4975391;28;20028;-74
2024/03/08 08:33:15;;;;;;;40.80;32.22;;;;;;;5.20;65.29;98049.16;4948458;28;20065;-74
2024/03/08 08:35:40;;;;;;;39.55;31.92;;;;;;;5.37;65.12;98074.28;4941525;28;20073;-75
2024/03/08 08:38:07;;;;;;;40.70;32.03;;;;;;;5.38;64.53;98073.25;4957883;28;20491;-75
2024/03/08 08:40:33;;;;;;;41.80;33.53;;;;;;;5.32;65.23;98052.75;4965708;28;20037;-75
2024/03/08 08:42:59;;;;;;;41.45;32.10;;;;;;;5.52;64.77;98066.00;4957238;28;20043;-75
2024/03/08 08:45:25;;;;;;;38.85;31.10;;;;;;;5.06;64.40;97988.88;4940980;28;20372;-75
2024/03/08 08:47:50;;;;;;;39.08;31.23;;;;;;;5.54;63.91;98059.41;4946263;28;20166;-75
2024/03/08 08:50:16;;;;;;;39.72;31.05;;;;;;;5.59;64.48;98054.22;4960702;28;20064;-76
2024/03/08 08:52:44;;;;;;;38.22;30.70;;;;;;;5.44;63.93;98021.66;4957658;28;20038;-77
2024/03/08 08:55:14;;;;;;;39.20;31.70;;;;;;;5.78;63.77;98055.13;4957353;28;20530;-75
2024/03/08 08:57:40;;;;;;;37.72;29.75;;;;;;;5.77;63.34;98040.13;4976038;28;20525;-75
2024/03/08 09:00:14;;;;;;;37.35;29.83;;;;;;;5.91;63.11;98056.88;4947977;28;20051;-74
2024/03/08 09:02:40;;;;;;;40.00;30.50;;;;;;;5.85;62.57;98045.22;4972162;28;20074;-76
2024/03/08 09:05:07;;;;;;;39.42;30.65;;;;;;;5.93;63.67;98044.13;4953813;28;20475;-75
2024/03/08 09:07:33;;;;;;;40.75;30.90;;;;;;;6.00;63.13;98039.53;4969218;28;20034;-75
2024/03/08 09:09:59;;;;;;;39.28;30.83;;;;;;;6.12;63.75;98048.47;4969985;28;20068;-75
2024/03/08 09:12:25;;;;;;;36.80;30.10;;;;;;;6.09;62.85;98033.69;4983312;28;20049;-75
2024/03/08 09:14:50;;;;;;;35.75;29.83;;;;;;;6.08;62.85;98015.22;4967293;28;20031;-76
2024/03/08 09:17:20;;;;;;;39.55;29.77;;;;;;;6.37;63.31;98043.91;4976669;28;20047;-75
2024/03/08 09:19:46;;;;;;;39.17;30.00;;;;;;;5.82;61.74;97946.75;4972975;28;20035;-75
2024/03/08 09:22:12;;;;;;;38.65;30.13;;;;;;;6.42;62.31;98030.69;4974688;28;20022;-76
2024/03/08 09:24:38;;;;;;;36.72;28.92;;;;;;;6.49;62.49;98050.16;4980840;28;20037;-76
2024/03/08 09:27:03;;;;;;;33.28;27.95;;;;;;;6.54;61.75;98026.25;4979344;28;20022;-75
2024/03/08 09:29:29;;;;;;;35.35;28.38;;;;;;;6.68;61.77;98032.25;4961134;28;20037;-76
2024/03/08 09:31:55;;;;;;;36.75;29.55;;;;;;;6.55;62.69;97994.97;4959718;28;20542;-76
2024/03/08 09:34:21;;;;;;;35.78;28.30;;;;;;;6.65;60.62;98005.97;4958501;28;20458;-76
2024/03/08 09:36:46;;;;;;;34.33;27.95;;;;;;;6.87;60.78;98037.38;4971130;28;20029;-76
2024/03/08 09:39:16;;;;;;;36.40;28.77;;;;;;;6.84;60.21;98021.78;4978618;28;20038;-76
2024/03/08 09:41:43;;;;;;;38.75;29.08;;;;;;;7.00;60.62;98025.72;4960031;28;20042;-76
2024/03/08 09:44:09;;;;;;;39.20;29.95;;;;;;;7.05;61.30;98025.03;4959615;28;20030;-76
2024/03/08 09:46:34;;;;;;;37.85;30.55;;;;;;;6.76;60.33;97976.59;4974281;28;20395;-76
2024/03/08 09:49:01;;;;;;;36.38;29.45;;;;;;;6.92;60.37;97992.03;4968596;28;20034;-76
2024/03/08 09:51:28;;;;;;;35.95;28.55;;;;;;;7.16;60.39;98025.09;4959514;28;20034;-76
2024/03/08 09:53:53;;;;;;;35.42;28.58;;;;;;;6.88;60.00;97969.41;4951636;28;20054;-76
2024/03/08 09:56:20;;;;;;;38.38;28.30;;;;;;;7.09;60.48;97983.38;4959506;28;20058;-76
2024/03/08 09:59:19;;;;;;;34.83;28.70;;;;;;;7.09;60.55;97986.88;4956180;28;20475;-76
2024/03/08 10:01:44;;;;;;;37.65;28.40;;;;;;;7.23;58.78;97995.53;4972449;28;20038;-76
2024/03/08 10:04:11;;;;;;;39.03;29.92;;;;;;;7.23;60.32;97995.53;4953078;28;20106;-76
2024/03/08 10:06:37;;;;;;;35.90;28.75;;;;;;;7.20;60.25;97963.84;4964699;28;20041;-75
2024/03/08 10:09:02;;;;;;;35.75;28.23;;;;;;;7.34;59.60;97976.00;4964860;28;20022;-75
2024/03/08 10:11:28;;;;;;;37.58;28.63;;;;;;;6.95;59.80;97905.09;4965421;28;20074;-76
2024/03/08 10:13:54;;;;;;;36.28;27.38;;;;;;;7.51;59.87;97972.41;4945420;28;20033;-76
2024/03/08 10:16:19;;;;;;;34.58;26.70;;;;;;;7.61;58.73;97993.28;4964957;28;20049;-76
2024/03/08 10:18:45;;;;;;;34.30;26.48;;;;;;;7.62;58.48;97970.81;4963769;28;20041;-76
2024/03/08 10:21:11;;;;;;;33.42;26.67;;;;;;;7.79;58.40;97982.50;4978406;28;20101;-76
2024/03/08 10:23:37;;;;;;;32.40;25.15;;;;;;;7.76;58.17;97977.59;4971504;28;20034;-76
2024/03/08 10:26:15;;;;;;;31.95;27.08;;;;;;;7.84;58.90;97955.00;4944194;29;20027;-76
2024/03/08 10:28:44;;;;;;;32.30;25.83;;;;;;;7.97;58.47;97963.59;4969802;28;20046;-76
2024/03/08 10:31:10;;;;;;;29.85;25.08;;;;;;;8.03;57.28;97972.56;4952889;28;20027;-75
2024/03/08 10:33:37;;;;;;;34.40;26.05;;;;;;;8.03;57.26;97962.66;4969659;28;20058;-76
2024/03/08 10:36:03;;;;;;;29.00;24.27;;;;;;;8.02;57.16;97939.59;4941517;28;20022;-76
2024/03/08 10:38:48;;;;;;;34.15;24.05;;;;;;;8.24;56.55;97956.69;4983335;23;20047;-78
2024/03/08 10:41:16;;;;;;;28.35;22.55;;;;;;;7.60;57.13;97833.56;4984074;28;20038;-76
2024/03/08 10:44:06;;;;;;;29.83;21.60;;;;;;;8.52;55.96;97960.56;4965581;28;20049;-77
2024/03/08 10:47:05;;;;;;;33.55;21.83;;;;;;;8.49;55.55;97961.03;4996429;28;20136;-77
2024/03/08 10:49:34;;;;;;;29.08;21.55;;;;;;;8.53;54.78;97935.34;4945348;28;20035;-77
2024/03/08 10:52:02;;;;;;;26.98;21.00;;;;;;;8.63;54.59;97941.75;4970079;28;20037;-77
2024/03/08 10:54:29;;;;;;;30.63;21.30;;;;;;;8.39;55.29;97896.41;4966578;28;20034;-77
2024/03/08 10:56:55;;;;;;;28.85;20.88;;;;;;;8.85;55.61;97933.81;4966708;28;20027;-77
2024/03/08 10:59:21;;;;;;;27.77;20.88;;;;;;;8.89;54.78;97946.53;4980401;28;20046;-77
2024/03/08 11:01:46;;;;;;;29.88;21.48;;;;;;;8.94;54.54;97930.50;4968813;28;20038;-78
2024/03/08 11:04:12;;;;;;;28.80;22.35;;;;;;;8.94;54.02;97916.25;4982315;28;20425;-77
2024/03/08 11:06:37;;;;;;;29.05;22.10;;;;;;;9.06;54.50;97935.84;4986415;28;20031;-77
2024/03/08 11:09:03;;;;;;;23.35;20.83;;;;;;;9.12;54.86;97924.13;5000822;28;20045;-78
2024/03/08 11:11:32;;;;;;;27.30;21.38;;;;;;;9.26;53.52;97930.84;4962981;28;20031;-79
2024/03/08 11:13:58;;;;;;;26.48;21.17;;;;;;;9.18;53.40;97922.34;4984787;28;20094;-78
2024/03/08 11:16:26;;;;;;;26.52;20.67;;;;;;;9.32;53.85;97927.16;4963307;28;20471;-79
2024/03/08 11:18:56;;;;;;;27.80;21.83;;;;;;;9.27;52.35;97920.88;4984747;28;20045;-79
2024/03/08 11:21:26;;;;;;;27.58;21.15;;;;;;;9.26;53.37;97925.47;4989869;28;20038;-80